createdAt,value
2023-06-11T00:07:44.899Z,11.65
2023-06-11T00:12:50.544Z,10.98
2023-06-11T00:22:58.992Z,11.85
2023-06-11T00:28:05.826Z,12.20
2023-06-11T00:33:09.948Z,11.27
2023-06-11T00:38:14.215Z,11.32
2023-06-11T00:43:22.544Z,11.48
2023-06-11T00:48:27.119Z,12.43
2023-06-11T00:53:31.710Z,11.60
2023-06-11T00:58:37.879Z,11.95
2023-06-11T01:03:42.576Z,12.85
2023-06-11T01:08:54.474Z,13.07
2023-06-11T01:14:04.042Z,12.93
2023-06-11T01:19:21.309Z,12.95
2023-06-11T01:29:46.658Z,13.38
2023-06-11T01:34:51.626Z,11.95
2023-06-11T01:39:59.144Z,13.05
2023-06-11T01:45:20.636Z,12.77
2023-06-11T01:50:24.915Z,13.10
2023-06-11T01:55:29.250Z,12.88
2023-06-11T02:00:34.883Z,12.82
2023-06-11T02:10:45.179Z,12.73
2023-06-11T02:15:50.846Z,12.68
2023-06-11T02:25:59.509Z,12.00
2023-06-11T02:31:05.784Z,12.38
2023-06-11T02:36:11.285Z,12.20
2023-06-11T02:41:16.792Z,11.67
2023-06-11T02:46:22.484Z,12.07
2023-06-11T02:51:26.663Z,13.10
2023-06-11T02:56:31.034Z,11.40
2023-06-11T03:06:43.083Z,12.80
2023-06-11T03:11:47.380Z,11.25
2023-06-11T03:16:53.057Z,11.30
2023-06-11T03:21:57.527Z,10.75
2023-06-11T03:27:01.896Z,11.13
2023-06-11T03:32:12.817Z,10.50
2023-06-11T03:37:19.881Z,10.52
2023-06-11T03:42:24.593Z,9.50
2023-06-11T03:47:30.755Z,10.50
2023-06-11T03:52:35.345Z,10.35
2023-06-11T03:57:39.538Z,9.90
2023-06-11T04:02:45.097Z,9.68
2023-06-11T04:07:53.933Z,9.40
2023-06-11T04:12:58.341Z,9.32
2023-06-11T04:18:04.185Z,9.32
2023-06-11T04:23:09.205Z,8.80
2023-06-11T04:28:17.337Z,8.45
2023-06-11T04:33:34.410Z,8.75
2023-06-11T04:38:46.474Z,9.98
2023-06-11T04:43:53.484Z,8.05
2023-06-11T04:49:01.440Z,8.75
2023-06-11T04:54:08.729Z,7.75
2023-06-11T04:59:17.750Z,7.88
2023-06-11T05:04:24.934Z,9.23
2023-06-11T05:09:30.311Z,7.97
2023-06-11T05:14:34.462Z,7.60
2023-06-11T05:19:40.709Z,7.73
2023-06-11T05:29:53.383Z,6.93
2023-06-11T05:34:59.215Z,6.43
2023-06-11T05:40:04.988Z,6.80
2023-06-11T05:45:09.990Z,28.83
2023-06-11T05:55:21.310Z,9.57
2023-06-11T06:00:25.736Z,7.18
2023-06-11T06:05:33.437Z,7.05
2023-06-11T06:10:38.028Z,7.25
2023-06-11T06:15:43.317Z,6.15
2023-06-11T06:20:50.046Z,6.47
2023-06-11T06:25:54.336Z,6.38
2023-06-11T06:30:58.781Z,6.18
2023-06-11T06:36:05.253Z,6.30
2023-06-11T06:41:10.017Z,5.20
2023-06-11T06:46:14.340Z,5.95
2023-06-11T06:51:21.779Z,6.03
2023-06-11T06:56:28.220Z,5.30
2023-06-11T07:01:32.357Z,6.90
2023-06-11T07:06:38.477Z,5.13
2023-06-11T07:11:43.346Z,5.68
2023-06-11T07:16:47.491Z,5.57
2023-06-11T07:21:53.362Z,4.82
2023-06-11T07:26:58.242Z,5.00
2023-06-11T07:32:02.499Z,5.22
2023-06-11T07:37:08.658Z,4.75
2023-06-11T07:42:12.706Z,5.50
2023-06-11T07:47:17.803Z,5.07
2023-06-11T07:52:23.917Z,4.32
2023-06-11T07:57:28.475Z,4.90
2023-06-11T08:02:32.725Z,5.10
2023-06-11T08:07:38.645Z,5.00
2023-06-11T08:12:43.785Z,4.03
2023-06-11T08:17:48.359Z,4.90
2023-06-11T08:22:54.102Z,4.80
2023-06-11T08:27:58.700Z,4.25
2023-06-11T08:33:04.180Z,4.67
2023-06-11T08:38:10.123Z,4.38
2023-06-11T08:43:15.218Z,4.80
2023-06-11T08:48:22.640Z,4.68
2023-06-11T08:53:29.552Z,4.10
2023-06-11T08:58:37.255Z,4.35
2023-06-11T09:03:41.910Z,4.22
2023-06-11T09:08:59.629Z,4.63
2023-06-11T09:14:04.650Z,4.80
2023-06-11T09:19:09.138Z,4.20
2023-06-11T09:24:15.109Z,4.13
2023-06-11T09:29:19.512Z,4.30
2023-06-11T09:34:25.178Z,4.47
2023-06-11T09:39:32.016Z,4.45
2023-06-11T09:44:36.386Z,4.53
2023-06-11T09:49:42.200Z,4.15
2023-06-11T09:54:51.929Z,4.00
2023-06-11T09:59:56.996Z,3.72
2023-06-11T10:05:01.429Z,3.80
2023-06-11T10:10:10.959Z,4.35
2023-06-11T10:15:18.672Z,4.55
2023-06-11T10:20:28.679Z,3.88
2023-06-11T10:25:39.173Z,3.50
2023-06-11T10:30:54.435Z,3.60
2023-06-11T10:36:03.335Z,3.50
2023-06-11T10:41:09.158Z,3.60
2023-06-11T10:46:21.007Z,3.40
2023-06-11T10:51:26.000Z,3.13
2023-06-11T10:56:31.872Z,3.60
2023-06-11T11:01:36.272Z,3.60
2023-06-11T11:06:44.732Z,3.38
2023-06-11T11:11:50.752Z,3.33
2023-06-11T11:16:55.183Z,3.70
2023-06-11T11:22:00.203Z,3.80
2023-06-11T11:27:08.132Z,3.90
2023-06-11T11:32:12.577Z,3.67
2023-06-11T11:37:17.793Z,3.87
2023-06-11T11:42:24.774Z,3.97
2023-06-11T11:47:29.813Z,3.72
2023-06-11T11:57:44.811Z,3.80
2023-06-11T12:02:49.906Z,3.72
2023-06-11T12:07:54.644Z,5.13
2023-06-11T12:13:00.214Z,3.80
2023-06-11T12:18:07.568Z,3.40
2023-06-11T12:23:11.851Z,3.20
2023-06-11T12:28:19.739Z,3.57
2023-06-11T12:33:24.133Z,3.75
2023-06-11T12:38:29.477Z,3.73
2023-06-11T12:43:35.113Z,3.42
2023-06-11T12:48:39.608Z,3.33
2023-06-11T12:53:44.243Z,3.50
2023-06-11T12:58:49.990Z,4.00
2023-06-11T13:03:54.270Z,3.40
2023-06-11T13:08:58.641Z,3.40
2023-06-11T13:14:04.413Z,3.72
2023-06-11T13:19:09.295Z,3.67
2023-06-11T13:24:13.559Z,3.70
2023-06-11T13:29:21.050Z,3.60
2023-06-11T13:34:25.331Z,3.65
2023-06-11T13:39:29.696Z,3.70
2023-06-11T13:44:35.397Z,3.73
2023-06-11T13:49:39.768Z,4.03
2023-06-11T13:54:44.357Z,4.88
2023-06-11T13:59:49.908Z,4.40
2023-06-11T14:04:54.664Z,4.57
2023-06-11T14:09:58.903Z,3.95
2023-06-11T14:15:05.118Z,3.90
2023-06-11T14:20:10.543Z,4.22
2023-06-11T14:25:16.542Z,4.13
2023-06-11T14:30:22.412Z,4.03
2023-06-11T14:35:26.517Z,4.47
2023-06-11T14:40:30.862Z,4.28
2023-06-11T14:45:38.097Z,3.87
2023-06-11T14:50:43.528Z,3.75
2023-06-11T14:55:50.056Z,3.77
2023-06-11T15:00:55.639Z,3.55
2023-06-11T15:06:01.143Z,3.70
2023-06-11T15:11:08.809Z,3.40
2023-06-11T15:16:15.686Z,3.90
2023-06-11T15:21:19.979Z,4.00
2023-06-11T15:26:24.562Z,4.00
2023-06-11T15:31:30.630Z,3.60
2023-06-11T15:36:34.712Z,6.10
2023-06-11T15:41:39.052Z,3.58
2023-06-11T15:46:44.689Z,3.57
2023-06-11T15:51:49.491Z,3.45
2023-06-11T15:56:53.800Z,3.93
2023-06-11T16:07:08.322Z,4.13
2023-06-11T16:12:13.056Z,4.30
2023-06-11T16:17:18.671Z,3.80
2023-06-11T16:22:23.111Z,3.92
2023-06-11T16:27:27.490Z,3.85
2023-06-11T16:32:33.193Z,4.03
2023-06-11T16:37:37.431Z,4.10
2023-06-11T16:42:41.650Z,3.80
2023-06-11T16:47:47.580Z,4.10
2023-06-11T16:52:53.119Z,3.83
2023-06-11T16:57:58.257Z,3.65
2023-06-11T17:03:04.053Z,4.28
2023-06-11T17:08:08.378Z,3.75
2023-06-11T17:13:12.420Z,4.20
2023-06-11T17:18:18.078Z,3.63
2023-06-11T17:23:22.427Z,3.88
2023-06-11T17:28:26.587Z,3.92
2023-06-11T17:33:32.109Z,3.45
2023-06-11T17:43:40.810Z,3.30
2023-06-11T17:48:46.489Z,3.33
2023-06-11T17:53:50.887Z,3.78
2023-06-11T17:58:55.271Z,4.97
2023-06-11T18:04:00.822Z,3.65
2023-06-11T18:14:09.590Z,3.83
2023-06-11T18:19:16.479Z,3.33
2023-06-11T18:29:27.113Z,3.40
2023-06-11T18:34:33.945Z,3.65
2023-06-11T18:44:45.271Z,3.97
2023-06-11T18:49:51.128Z,3.50
2023-06-11T18:54:55.320Z,3.47
2023-06-11T18:59:59.548Z,3.67
2023-06-11T19:05:05.717Z,3.42
2023-06-11T19:10:12.383Z,3.53
2023-06-11T19:15:16.911Z,3.70
2023-06-11T19:20:22.558Z,3.25
2023-06-11T19:30:31.100Z,3.80
2023-06-11T19:35:36.963Z,2.92
2023-06-11T19:40:41.350Z,3.65
2023-06-11T19:45:45.509Z,4.53
2023-06-11T19:50:52.109Z,4.72
2023-06-11T19:55:56.504Z,3.47
2023-06-11T20:01:00.631Z,4.15
2023-06-11T20:06:06.309Z,3.85
2023-06-11T20:16:16.553Z,3.60
2023-06-11T20:21:23.755Z,3.45
2023-06-11T20:26:27.963Z,3.70
2023-06-11T20:31:32.216Z,3.88
2023-06-11T20:36:37.898Z,3.95
2023-06-11T20:46:46.283Z,3.90
2023-06-11T20:51:52.028Z,3.83
2023-06-11T20:56:56.526Z,3.50
2023-06-11T21:02:01.807Z,4.13
2023-06-11T21:07:08.208Z,4.43
2023-06-11T21:12:18.557Z,4.03
2023-06-11T21:17:22.733Z,4.20
2023-06-11T21:22:28.325Z,3.85
2023-06-11T21:27:32.473Z,3.72
2023-06-11T21:32:36.702Z,4.15
2023-06-11T21:37:42.168Z,3.65
2023-06-11T21:42:46.460Z,4.57
2023-06-11T21:47:50.888Z,4.18
2023-06-11T21:52:57.117Z,4.23
2023-06-11T21:58:04.405Z,4.38
2023-06-11T22:03:08.709Z,4.22
2023-06-11T22:08:14.972Z,4.47
2023-06-11T22:13:19.526Z,4.35
2023-06-11T22:18:29.545Z,4.90
2023-06-11T22:23:50.257Z,4.55
2023-06-11T22:28:55.828Z,3.83
2023-06-11T22:34:00.289Z,4.07
2023-06-11T22:39:06.276Z,4.30
2023-06-11T22:44:10.448Z,4.25
2023-06-11T22:49:15.139Z,3.83
2023-06-11T22:54:20.595Z,4.47
2023-06-11T22:59:24.864Z,3.63
2023-06-11T23:04:29.791Z,4.10
2023-06-11T23:09:35.597Z,3.80
2023-06-11T23:14:40.160Z,4.32
2023-06-11T23:19:44.743Z,4.30
2023-06-11T23:24:50.983Z,4.00
2023-06-11T23:29:55.215Z,4.00
2023-06-11T23:35:01.256Z,4.10
2023-06-11T23:40:09.633Z,3.70
2023-06-11T23:45:14.248Z,3.95
2023-06-11T23:50:18.505Z,4.15
2023-06-11T23:55:24.244Z,3.83
